Time;durP1;ratioP1;P1;durP2;ratioP2;P2;SDS_P1;SDS_P2;PMS_P1;PMS_P2;Temp;Humidity;BMP_temperature;BMP_pressure;BME280_temperature;BME280_humidity;BME280_pressure;Samples;Min_cycle;Max_cycle;Signal;HPM_P1;HPM_P2
2022/07/13 00:01:07;;;;;;;2.90;1.02;;;18.90;99.90;;;;;;5063806;28;20311;-72
2022/07/13 00:03:56;;;;;;;2.08;0.95;;;18.90;99.90;;;;;;5059201;28;20208;-84
2022/07/13 00:06:44;;;;;;;3.58;0.93;;;18.90;99.90;;;;;;5066896;28;21622;-84
2022/07/13 00:09:34;;;;;;;3.20;1.02;;;18.90;99.90;;;;;;5059822;28;20732;-83
2022/07/13 00:12:23;;;;;;;2.55;1.20;;;18.80;99.90;;;;;;5072080;28;20220;-84
2022/07/13 00:15:12;;;;;;;3.47;1.02;;;18.80;99.90;;;;;;5082804;28;20228;-83
2022/07/13 00:18:01;;;;;;;3.65;1.20;;;18.80;99.90;;;;;;5070283;28;20219;-83
2022/07/13 00:20:49;;;;;;;3.92;1.15;;;18.80;99.90;;;;;;5051990;28;20235;-83
2022/07/13 00:23:38;;;;;;;2.08;0.98;;;18.80;99.90;;;;;;5048654;28;20586;-75
2022/07/13 00:26:26;;;;;;;1.60;1.10;;;18.70;99.90;;;;;;5046136;28;20246;-76
2022/07/13 00:29:16;;;;;;;4.10;1.40;;;18.70;99.90;;;;;;5063313;28;20227;-75
2022/07/13 00:32:05;;;;;;;2.67;1.20;;;18.70;99.90;;;;;;5063316;28;20795;-75
2022/07/13 00:34:54;;;;;;;2.75;1.30;;;18.70;99.90;;;;;;5061242;28;20212;-75
2022/07/13 00:37:44;;;;;;;2.42;1.30;;;18.70;99.90;;;;;;5074897;28;20702;-83
2022/07/13 00:40:32;;;;;;;3.60;1.40;;;18.70;99.90;;;;;;5058022;28;20897;-77
2022/07/13 00:43:21;;;;;;;3.42;0.95;;;18.60;99.90;;;;;;5068965;28;20595;-75
2022/07/13 00:46:11;;;;;;;1.20;1.05;;;18.60;99.90;;;;;;5062331;28;20577;-75
2022/07/13 00:49:03;;;;;;;3.38;1.35;;;18.50;99.90;;;;;;5063190;28;20216;-75
2022/07/13 00:51:51;;;;;;;2.95;1.30;;;18.50;99.90;;;;;;5054000;28;20303;-76
2022/07/13 00:54:42;;;;;;;4.07;1.40;;;18.50;99.90;;;;;;5029054;28;20217;-75
2022/07/13 00:57:34;;;;;;;2.45;1.30;;;18.50;99.90;;;;;;5032457;28;20228;-76
2022/07/13 01:00:23;;;;;;;5.45;1.58;;;18.50;99.90;;;;;;5034363;28;20226;-73
2022/07/13 01:03:13;;;;;;;3.75;1.52;;;18.40;99.90;;;;;;5027503;28;20233;-75
2022/07/13 01:06:03;;;;;;;2.10;1.50;;;18.40;99.90;;;;;;5026560;28;20232;-73
2022/07/13 01:08:51;;;;;;;5.78;1.48;;;18.30;99.90;;;;;;5039346;28;20243;-77
2022/07/13 01:11:41;;;;;;;3.42;1.63;;;18.30;99.90;;;;;;5033532;28;20407;-83
2022/07/13 01:14:31;;;;;;;3.35;1.25;;;18.30;99.90;;;;;;5044138;28;20233;-82
2022/07/13 01:17:19;;;;;;;1.77;1.45;;;18.30;99.90;;;;;;5042088;28;20228;-76
2022/07/13 01:20:10;;;;;;;4.25;1.55;;;18.40;99.90;;;;;;5034729;28;20884;-74
2022/07/13 01:23:08;;;;;;;2.72;1.33;;;18.40;99.90;;;;;;5063356;28;20236;-83
2022/07/13 01:25:57;;;;;;;2.13;1.48;;;18.30;99.90;;;;;;5027245;28;20222;-75
2022/07/13 01:28:46;;;;;;;2.45;1.40;;;18.30;99.90;;;;;;5040310;28;20218;-76
2022/07/13 01:31:37;;;;;;;4.32;1.50;;;18.40;99.90;;;;;;5053803;28;20232;-76
2022/07/13 01:34:26;;;;;;;3.10;1.60;;;18.30;99.90;;;;;;5039783;28;20262;-75
2022/07/13 01:37:15;;;;;;;5.13;1.38;;;18.30;99.90;;;;;;5044428;28;20277;-75
2022/07/13 01:40:06;;;;;;;1.75;1.40;;;18.30;99.90;;;;;;5027006;28;20287;-75
2022/07/13 01:42:55;;;;;;;1.90;1.40;;;18.30;99.90;;;;;;5032783;28;20232;-76
2022/07/13 01:45:45;;;;;;;5.85;1.58;;;18.30;99.90;;;;;;5035985;28;20572;-75
2022/07/13 01:48:34;;;;;;;2.88;1.63;;;18.30;99.90;;;;;;5024391;28;20255;-72
2022/07/13 01:51:22;;;;;;;2.55;1.85;;;18.30;99.90;;;;;;5044912;28;20251;-81
2022/07/13 01:54:11;;;;;;;3.90;1.75;;;18.20;99.90;;;;;;5049279;28;20605;-82
2022/07/13 01:57:01;;;;;;;3.25;1.60;;;18.20;99.90;;;;;;5051909;28;20228;-82
2022/07/13 01:59:51;;;;;;;4.35;1.60;;;18.20;99.90;;;;;;5064931;28;20223;-75
2022/07/13 02:02:40;;;;;;;2.85;1.70;;;18.20;99.90;;;;;;5047962;28;20246;-75
2022/07/13 02:05:33;;;;;;;2.42;1.50;;;18.20;99.90;;;;;;5058457;28;20220;-75
2022/07/13 02:08:22;;;;;;;2.25;1.60;;;18.10;99.90;;;;;;5064376;28;20746;-75
2022/07/13 02:11:15;;;;;;;2.67;1.60;;;18.10;99.90;;;;;;5060498;28;20262;-75
2022/07/13 02:14:05;;;;;;;3.83;1.85;;;18.10;99.90;;;;;;5077995;28;20337;-75
2022/07/13 02:16:54;;;;;;;4.45;1.90;;;18.10;99.90;;;;;;5064935;28;20227;-75
2022/07/13 02:19:43;;;;;;;2.40;1.98;;;18.00;99.90;;;;;;5049092;28;20221;-76
2022/07/13 02:22:44;;;;;;;6.63;2.38;;;18.00;99.90;;;;;;5070500;28;20776;-75
2022/07/13 02:25:34;;;;;;;2.58;2.03;;;18.00;99.90;;;;;;5063187;28;20227;-74
2022/07/13 02:28:23;;;;;;;2.63;2.20;;;18.00;99.90;;;;;;5067227;28;20229;-75
2022/07/13 02:31:17;;;;;;;2.20;2.00;;;18.00;99.90;;;;;;5054798;28;20865;-75
2022/07/13 02:34:05;;;;;;;5.88;2.45;;;18.00;99.90;;;;;;5077270;28;20231;-76
2022/07/13 02:36:54;;;;;;;2.53;2.00;;;18.00;99.90;;;;;;5048152;28;20232;-74
2022/07/13 02:39:43;;;;;;;2.60;1.95;;;18.00;99.90;;;;;;5044594;28;20953;-75
2022/07/13 02:42:31;;;;;;;3.92;2.58;;;18.00;99.90;;;;;;5077602;28;20231;-75
2022/07/13 02:45:20;;;;;;;3.90;2.30;;;18.00;99.90;;;;;;5050718;28;20292;-76
2022/07/13 02:48:11;;;;;;;4.03;2.15;;;18.00;99.90;;;;;;5075038;28;20235;-75
2022/07/13 02:50:59;;;;;;;3.63;2.15;;;18.00;99.90;;;;;;5070102;28;20345;-75
2022/07/13 02:53:48;;;;;;;2.40;1.88;;;18.00;99.90;;;;;;5062873;28;20220;-75
2022/07/13 02:56:36;;;;;;;8.93;2.42;;;18.00;99.90;;;;;;5048854;28;20232;-74
2022/07/13 02:59:25;;;;;;;3.05;2.50;;;18.00;99.90;;;;;;5062157;28;20702;-75
2022/07/13 03:02:14;;;;;;;2.22;2.03;;;18.00;99.90;;;;;;5075298;28;20737;-75
2022/07/13 03:05:04;;;;;;;2.78;1.98;;;18.00;99.90;;;;;;5050609;28;20771;-74
2022/07/13 03:07:54;;;;;;;4.90;2.20;;;18.00;99.90;;;;;;5048928;28;20224;-75
2022/07/13 03:10:45;;;;;;;6.00;2.10;;;18.00;99.90;;;;;;5057668;28;20248;-76
2022/07/13 03:13:35;;;;;;;4.47;2.35;;;18.00;99.90;;;;;;5059658;28;20362;-75
2022/07/13 03:16:24;;;;;;;4.72;2.53;;;18.00;99.90;;;;;;5074799;28;20365;-75
2022/07/13 03:19:13;;;;;;;4.75;1.90;;;18.00;99.90;;;;;;5047670;28;20239;-74
2022/07/13 03:22:05;;;;;;;8.02;2.10;;;18.00;99.90;;;;;;5047028;28;20225;-75
2022/07/13 03:24:55;;;;;;;3.50;2.25;;;18.00;99.90;;;;;;5050448;28;20216;-76
2022/07/13 03:27:44;;;;;;;4.28;2.00;;;18.00;99.90;;;;;;5060950;28;20219;-76
2022/07/13 03:30:33;;;;;;;7.40;2.33;;;18.00;99.90;;;;;;5056841;28;20227;-75
2022/07/13 03:33:21;;;;;;;3.85;1.95;;;18.00;99.90;;;;;;5061684;28;20227;-74
2022/07/13 03:36:11;;;;;;;4.75;2.10;;;18.00;99.90;;;;;;5057373;28;20224;-75
2022/07/13 03:39:01;;;;;;;5.93;2.22;;;18.00;99.90;;;;;;5063361;28;20244;-74
2022/07/13 03:41:52;;;;;;;2.55;1.95;;;18.10;99.90;;;;;;5051019;28;20223;-75
2022/07/13 03:44:41;;;;;;;2.95;1.90;;;18.10;99.90;;;;;;5058567;28;20223;-75
2022/07/13 03:47:30;;;;;;;6.30;1.80;;;18.10;99.90;;;;;;5050429;28;20303;-75
2022/07/13 03:50:19;;;;;;;2.42;1.98;;;18.10;99.90;;;;;;5045507;28;20295;-74
2022/07/13 03:53:07;;;;;;;5.05;2.05;;;18.10;99.90;;;;;;5062321;28;20766;-74
2022/07/13 03:55:57;;;;;;;1.42;1.33;;;18.10;99.90;;;;;;5044665;28;20231;-75
2022/07/13 03:58:46;;;;;;;2.75;1.80;;;18.10;99.90;;;;;;5061487;28;21031;-74
2022/07/13 04:01:36;;;;;;;3.90;1.58;;;18.10;99.90;;;;;;5063202;28;20235;-74
2022/07/13 04:04:26;;;;;;;4.55;1.98;;;18.10;99.90;;;;;;5049463;28;20262;-75
2022/07/13 04:07:18;;;;;;;4.45;1.95;;;18.20;99.90;;;;;;5049689;28;20228;-75
2022/07/13 04:10:08;;;;;;;3.60;1.58;;;18.10;99.90;;;;;;5048816;28;20310;-75
2022/07/13 04:12:59;;;;;;;3.28;1.70;;;18.10;99.90;;;;;;5071100;28;20883;-75
2022/07/13 04:15:54;;;;;;;6.88;1.63;;;18.20;99.90;;;;;;5064839;28;20224;-74
2022/07/13 04:18:43;;;;;;;2.47;1.70;;;18.20;99.90;;;;;;5056598;28;20220;-74
2022/07/13 04:21:31;;;;;;;3.08;1.52;;;18.20;99.90;;;;;;5066816;28;20228;-75
2022/07/13 04:24:20;;;;;;;5.95;1.70;;;18.30;99.90;;;;;;5074271;28;20224;-74
2022/07/13 04:27:10;;;;;;;3.70;1.67;;;18.30;99.90;;;;;;5076098;28;20224;-74
2022/07/13 04:29:59;;;;;;;4.90;1.65;;;18.30;99.90;;;;;;5043412;28;20212;-73
2022/07/13 04:32:49;;;;;;;4.63;1.35;;;18.30;99.90;;;;;;5050083;28;20213;-74
2022/07/13 04:35:39;;;;;;;1.95;1.38;;;18.40;99.90;;;;;;5050888;28;20999;-74
2022/07/13 04:38:28;;;;;;;1.95;1.50;;;18.30;99.90;;;;;;5063127;28;20229;-74
2022/07/13 04:41:17;;;;;;;7.43;2.65;;;18.30;99.90;;;;;;5048767;28;20821;-75
2022/07/13 04:44:06;;;;;;;2.53;1.48;;;18.40;99.90;;;;;;5046695;28;20216;-76
2022/07/13 04:46:56;;;;;;;4.57;1.98;;;18.40;99.90;;;;;;5051402;28;20579;-76
2022/07/13 04:49:45;;;;;;;3.55;1.70;;;18.50;99.90;;;;;;5047409;28;20227;-76
2022/07/13 04:52:34;;;;;;;3.35;1.65;;;18.50;99.90;;;;;;5062280;28;20228;-76
2022/07/13 04:55:23;;;;;;;5.78;2.00;;;18.60;99.90;;;;;;5059681;28;20219;-75
2022/07/13 04:58:11;;;;;;;4.63;1.70;;;18.70;99.90;;;;;;5075186;28;20223;-75
2022/07/13 05:01:04;;;;;;;2.60;1.42;;;18.80;99.90;;;;;;5077627;28;20255;-76
2022/07/13 05:04:14;;;;;;;4.55;1.58;;;19.00;99.90;;;;;;5046378;28;20465;-76
2022/07/13 05:07:03;;;;;;;3.70;1.58;;;18.90;99.90;;;;;;5058305;28;20212;-76
2022/07/13 05:09:53;;;;;;;2.53;1.83;;;18.90;99.90;;;;;;5074756;28;20331;-76
2022/07/13 05:12:43;;;;;;;2.38;1.17;;;18.80;99.90;;;;;;5057938;28;20318;-76
2022/07/13 05:15:34;;;;;;;2.38;1.38;;;18.80;99.90;;;;;;5044034;28;20247;-77
2022/07/13 05:18:26;;;;;;;3.17;1.38;;;18.80;99.90;;;;;;5056113;28;20220;-77
2022/07/13 05:21:20;;;;;;;3.08;1.58;;;18.70;99.90;;;;;;5049109;28;20234;-76
2022/07/13 05:24:08;;;;;;;2.20;1.33;;;18.70;99.90;;;;;;5050368;28;20228;-77
2022/07/13 05:26:59;;;;;;;5.78;1.80;;;18.70;99.90;;;;;;5074983;28;20207;-77
2022/07/13 05:29:47;;;;;;;55.67;5.28;;;18.70;99.90;;;;;;5037889;28;20217;-76
2022/07/13 05:32:36;;;;;;;3.22;1.55;;;18.70;99.90;;;;;;5048488;28;21155;-77
2022/07/13 05:35:26;;;;;;;2.58;1.30;;;18.70;99.90;;;;;;5047310;28;20346;-77
2022/07/13 05:38:16;;;;;;;1.90;1.38;;;18.80;99.90;;;;;;5049876;28;20254;-77
2022/07/13 05:41:05;;;;;;;10.38;1.75;;;18.80;99.90;;;;;;5052015;28;20228;-78
2022/07/13 05:43:54;;;;;;;5.22;1.50;;;18.90;99.90;;;;;;5055373;28;20261;-88
2022/07/13 05:46:45;;;;;;;5.50;1.85;;;18.90;99.90;;;;;;5056670;28;20223;-78
2022/07/13 05:49:35;;;;;;;2.95;1.63;;;18.90;99.90;;;;;;5053856;28;20851;-77
2022/07/13 05:52:24;;;;;;;6.20;1.67;;;19.00;99.90;;;;;;5044385;28;20732;-76
2022/07/13 05:55:14;;;;;;;6.07;2.00;;;19.00;99.90;;;;;;5059294;28;20228;-78
2022/07/13 05:58:04;;;;;;;6.65;2.05;;;19.10;99.90;;;;;;5061666;28;20252;-82
2022/07/13 06:00:53;;;;;;;3.05;1.70;;;19.20;99.90;;;;;;5069788;28;20225;-79
2022/07/13 06:03:46;;;;;;;4.75;2.30;;;19.40;99.90;;;;;;5066881;28;20327;-79
2022/07/13 06:06:35;;;;;;;3.95;2.03;;;19.50;99.90;;;;;;5064244;28;20216;-85
2022/07/13 06:09:24;;;;;;;4.28;2.22;;;19.60;99.90;;;;;;5053366;28;20311;-84
2022/07/13 06:12:15;;;;;;;5.28;2.47;;;19.70;99.90;;;;;;5065371;28;20228;-84
2022/07/13 06:15:05;;;;;;;6.38;2.35;;;19.80;99.90;;;;;;5058231;28;20240;-86
2022/07/13 06:17:54;;;;;;;2.67;1.80;;;19.90;99.90;;;;;;5067192;28;20307;-86
2022/07/13 06:20:43;;;;;;;2.92;1.92;;;20.10;99.90;;;;;;5040532;28;20871;-79
2022/07/13 06:23:32;;;;;;;6.22;2.00;;;20.20;99.90;;;;;;5068307;28;20843;-79
2022/07/13 06:26:20;;;;;;;4.05;1.52;;;20.30;99.90;;;;;;5048369;28;20720;-79
2022/07/13 06:29:10;;;;;;;5.55;1.60;;;20.40;99.90;;;;;;5051729;28;20223;-78
2022/07/13 06:31:59;;;;;;;3.70;1.67;;;20.50;99.90;;;;;;5071584;28;20220;-85
2022/07/13 06:34:48;;;;;;;2.30;1.40;;;20.50;99.90;;;;;;5068847;28;20255;-83
2022/07/13 06:37:37;;;;;;;5.18;1.40;;;20.60;99.90;;;;;;5050345;28;20216;-79
2022/07/13 06:40:34;;;;;;;2.45;1.85;;;20.80;99.90;;;;;;5055918;28;20310;-76
2022/07/13 06:43:23;;;;;;;2.25;1.35;;;21.10;99.90;;;;;;5060608;28;20220;-77
2022/07/13 06:46:13;;;;;;;3.78;1.85;;;21.20;99.90;;;;;;5062328;28;20290;-76
2022/07/13 06:49:02;;;;;;;3.80;1.40;;;21.30;99.90;;;;;;5059740;28;20243;-77
2022/07/13 06:51:51;;;;;;;4.53;1.55;;;21.40;99.90;;;;;;5069796;28;20235;-94
2022/07/13 06:54:39;;;;;;;7.20;1.38;;;21.60;99.90;;;;;;5063177;28;20294;-95
2022/07/13 06:57:29;;;;;;;3.35;1.80;;;21.80;99.90;;;;;;5057752;28;20786;-94
2022/07/13 07:00:18;;;;;;;2.45;1.60;;;21.90;99.90;;;;;;5046727;28;20844;-77
2022/07/13 07:03:08;;;;;;;2.25;1.30;;;22.00;99.90;;;;;;5066639;28;20282;-76
2022/07/13 07:05:57;;;;;;;2.70;1.20;;;22.10;99.90;;;;;;5052035;28;20227;-77
2022/07/13 07:08:45;;;;;;;3.35;1.70;;;22.20;99.90;;;;;;5064705;28;20219;-77
2022/07/13 07:11:34;;;;;;;4.40;1.40;;;22.40;99.90;;;;;;5073540;28;20258;-78
2022/07/13 07:14:23;;;;;;;5.65;1.30;;;22.60;99.90;;;;;;5066850;28;20779;-90
2022/07/13 07:17:13;;;;;;;5.22;1.58;;;22.80;99.90;;;;;;5049751;28;20228;-77
2022/07/13 07:20:05;;;;;;;4.75;1.27;;;23.00;99.90;;;;;;5064801;28;20224;-76
2022/07/13 07:22:53;;;;;;;2.28;1.00;;;23.10;99.90;;;;;;5062779;28;20216;-76
2022/07/13 07:25:42;;;;;;;2.65;1.30;;;23.30;99.90;;;;;;5066152;28;20609;-78
2022/07/13 07:28:31;;;;;;;4.75;1.40;;;23.40;99.90;;;;;;5064779;28;20322;-78
2022/07/13 07:31:20;;;;;;;3.55;1.70;;;23.50;99.90;;;;;;5056545;28;20220;-76
2022/07/13 07:34:09;;;;;;;2.80;1.55;;;23.80;99.90;;;;;;5061440;28;20882;-77
2022/07/13 07:36:59;;;;;;;5.82;2.10;;;24.20;99.90;;;;;;5041502;28;20229;-76
2022/07/13 07:39:48;;;;;;;4.50;1.40;;;24.30;99.90;;;;;;5048810;28;20227;-77
2022/07/13 07:42:37;;;;;;;4.15;1.52;;;24.70;99.90;;;;;;5070731;28;20228;-78
2022/07/13 07:45:25;;;;;;;2.78;1.08;;;25.00;99.90;;;;;;5071192;28;20611;-76
2022/07/13 07:48:14;;;;;;;2.60;1.13;;;25.50;99.90;;;;;;5064515;28;20630;-76
2022/07/13 07:51:04;;;;;;;3.53;1.45;;;25.90;99.90;;;;;;5058909;28;20312;-78
2022/07/13 07:53:54;;;;;;;5.82;1.10;;;26.40;99.90;;;;;;5057121;28;20233;-76
2022/07/13 07:56:43;;;;;;;4.15;1.20;;;27.00;99.90;;;;;;5057935;28;20567;-76
2022/07/13 07:59:31;;;;;;;3.50;1.30;;;27.50;97.10;;;;;;5055782;28;22182;-77
2022/07/13 08:02:20;;;;;;;2.45;1.20;;;27.80;95.40;;;;;;5071352;28;20224;-77
2022/07/13 08:05:09;;;;;;;2.33;1.00;;;28.00;91.50;;;;;;5046079;28;20746;-77
2022/07/13 08:08:01;;;;;;;3.10;1.00;;;28.40;88.70;;;;;;5062990;28;20238;-75
2022/07/13 08:10:52;;;;;;;2.03;1.10;;;28.70;85.00;;;;;;5058320;28;20234;-76
2022/07/13 08:13:40;;;;;;;4.07;1.27;;;28.80;78.90;;;;;;5064051;28;20832;-75
2022/07/13 08:16:29;;;;;;;2.28;1.13;;;28.60;74.50;;;;;;5057280;28;20228;-75
2022/07/13 08:19:18;;;;;;;1.23;1.10;;;28.90;73.90;;;;;;5061051;28;20216;-75
2022/07/13 08:22:27;;;;;;;5.78;1.10;;;29.40;73.30;;;;;;5041801;28;20235;-75
2022/07/13 08:25:15;;;;;;;2.78;1.40;;;29.50;74.30;;;;;;5067405;28;20220;-78
2022/07/13 08:28:06;;;;;;;3.80;1.25;;;29.40;67.30;;;;;;5052256;28;20238;-85
2022/07/13 08:30:54;;;;;;;6.65;1.88;;;29.40;70.90;;;;;;5050257;28;20207;-77
2022/07/13 08:39:55;;;;;;;2.25;1.10;;;30.40;63.80;;;;;;5056168;28;20226;-75
2022/07/13 08:42:44;;;;;;;4.60;1.95;;;31.00;66.40;;;;;;5058682;28;20243;-75
2022/07/13 08:45:34;;;;;;;4.78;1.25;;;31.30;64.50;;;;;;5055361;28;20224;-75
2022/07/13 08:48:29;;;;;;;2.45;1.52;;;31.50;64.00;;;;;;5058750;28;20212;-75
2022/07/13 08:51:18;;;;;;;3.97;1.23;;;31.60;62.50;;;;;;5059118;28;20246;-75
2022/07/13 08:54:07;;;;;;;1.80;1.17;;;32.00;64.90;;;;;;5047521;28;20251;-75
2022/07/13 08:56:56;;;;;;;1.83;1.33;;;32.10;61.60;;;;;;5044351;28;20220;-76
2022/07/13 08:59:45;;;;;;;2.50;1.30;;;32.50;61.70;;;;;;5057007;28;20282;-75
2022/07/13 09:02:35;;;;;;;3.25;1.40;;;32.70;61.90;;;;;;5053618;28;20230;-75
2022/07/13 09:05:26;;;;;;;3.30;1.20;;;32.90;60.20;;;;;;5046293;28;20228;-84
2022/07/13 09:08:16;;;;;;;4.80;1.00;;;33.20;59.80;;;;;;5070171;28;20220;-76
2022/07/13 09:11:05;;;;;;;2.10;1.00;;;33.60;58.90;;;;;;5062041;28;20226;-76
2022/07/13 09:13:57;;;;;;;2.85;1.27;;;33.40;57.40;;;;;;5064544;28;20807;-76
2022/07/13 09:16:51;;;;;;;3.50;1.30;;;33.90;56.90;;;;;;5060354;28;20234;-76
2022/07/13 09:19:44;;;;;;;5.57;0.93;;;34.50;58.10;;;;;;5065792;28;20280;-76
2022/07/13 09:22:34;;;;;;;5.50;1.00;;;35.00;55.30;;;;;;5021847;28;20235;-76
2022/07/13 09:25:31;;;;;;;1.75;0.90;;;35.50;54.80;;;;;;5064445;28;22125;-76
2022/07/13 09:28:19;;;;;;;2.30;1.20;;;36.40;53.50;;;;;;5047965;28;20219;-83
2022/07/13 09:31:09;;;;;;;3.53;0.95;;;36.90;51.60;;;;;;5063651;28;20212;-76
2022/07/13 09:33:58;;;;;;;2.45;0.80;;;37.30;51.00;;;;;;5051325;28;20234;-84
2022/07/13 09:37:11;;;;;;;2.85;0.98;;;36.90;50.50;;;;;;5046373;28;20231;-77
2022/07/13 09:40:05;;;;;;;6.32;1.70;;;36.90;50.70;;;;;;5058568;28;20286;-77
2022/07/13 09:46:09;;;;;;;3.03;1.10;;;37.30;51.10;;;;;;5067648;28;20227;-78
2022/07/13 09:48:58;;;;;;;3.72;1.27;;;37.70;49.20;;;;;;5067012;28;20584;-78
2022/07/13 09:51:57;;;;;;;4.00;0.90;;;38.30;49.10;;;;;;5051829;28;20757;-81
2022/07/13 09:54:50;;;;;;;3.95;1.15;;;38.60;47.50;;;;;;5063657;28;20602;-76
2022/07/13 09:57:47;;;;;;;4.30;0.90;;;38.90;48.20;;;;;;5050293;28;20211;-76
2022/07/13 10:00:47;;;;;;;5.55;0.93;;;38.80;46.60;;;;;;5056263;28;20224;-77
2022/07/13 10:03:38;;;;;;;2.95;1.33;;;39.80;46.20;;;;;;5061805;28;20216;-77
2022/07/13 10:06:34;;;;;;;2.40;0.93;;;40.50;44.60;;;;;;5064489;28;20220;-84
2022/07/13 10:09:25;;;;;;;4.13;1.25;;;41.10;43.90;;;;;;5078480;28;20232;-78
2022/07/13 10:12:14;;;;;;;2.53;0.95;;;41.60;43.50;;;;;;5065600;28;20300;-82
2022/07/13 10:15:03;;;;;;;4.45;1.58;;;42.10;42.80;;;;;;5062922;28;20212;-76
2022/07/13 10:17:52;;;;;;;3.58;1.27;;;41.50;41.00;;;;;;5058000;28;20784;-77
2022/07/13 10:20:49;;;;;;;1.73;0.82;;;40.70;42.30;;;;;;5063903;28;21244;-86
2022/07/13 10:23:39;;;;;;;3.30;1.05;;;41.80;42.50;;;;;;5047962;28;20285;-78
2022/07/13 10:26:37;;;;;;;3.13;1.20;;;42.70;42.60;;;;;;5076272;28;20701;-76
2022/07/13 10:29:26;;;;;;;3.80;1.10;;;43.00;41.70;;;;;;5060527;28;20216;-76
2022/07/13 10:32:18;;;;;;;3.83;1.00;;;42.40;42.10;;;;;;5060654;28;20997;-77
2022/07/13 10:35:09;;;;;;;1.95;1.20;;;41.90;41.60;;;;;;5062204;28;20243;-77
2022/07/13 10:38:16;;;;;;;2.55;1.20;;;41.30;43.70;;;;;;5061858;28;20578;-77
2022/07/13 10:41:23;;;;;;;3.55;1.67;;;42.40;42.90;;;;;;5062096;28;20223;-77
2022/07/13 10:44:38;;;;;;;2.30;1.23;;;43.20;41.50;;;;;;5060693;28;20238;-76
2022/07/13 10:47:44;;;;;;;2.03;1.10;;;43.50;41.50;;;;;;5058041;28;20274;-79
2022/07/13 10:50:44;;;;;;;3.55;1.10;;;42.90;41.00;;;;;;5059219;28;20274;-76
2022/07/13 10:54:10;;;;;;;1.10;1.00;;;43.90;41.00;;;;;;5062110;28;20224;-82
2022/07/13 10:57:13;;;;;;;2.78;1.17;;;44.40;40.60;;;;;;5043502;28;20227;-78
2022/07/13 11:00:10;;;;;;;2.53;1.48;;;45.10;40.30;;;;;;5046855;28;20219;-81
2022/07/13 11:03:03;;;;;;;2.35;1.48;;;44.70;39.40;;;;;;5065590;28;20223;-80
2022/07/13 11:06:06;;;;;;;2.65;1.40;;;44.50;39.40;;;;;;5061254;28;20234;-80
2022/07/13 11:09:13;;;;;;;3.63;1.15;;;45.50;39.30;;;;;;5045414;28;20226;-80
2022/07/13 11:12:01;;;;;;;2.13;1.40;;;45.50;38.80;;;;;;5060224;28;22457;-82
2022/07/13 11:14:50;;;;;;;1.25;1.15;;;44.90;38.70;;;;;;5064375;28;20236;-82
2022/07/13 11:17:41;;;;;;;2.22;1.30;;;44.30;40.10;;;;;;5067955;28;20220;-83
2022/07/13 11:20:37;;;;;;;7.22;1.25;;;44.10;39.70;;;;;;5049641;28;20730;-82
2022/07/13 11:26:46;;;;;;;3.08;1.30;;;45.10;38.60;;;;;;5063655;28;20219;-81
2022/07/13 11:29:45;;;;;;;3.85;1.75;;;44.90;39.40;;;;;;5056345;28;20219;-82
2022/07/13 11:32:34;;;;;;;2.40;1.33;;;45.40;38.80;;;;;;5058647;28;20231;-82
2022/07/13 11:35:24;;;;;;;5.53;1.25;;;45.10;38.00;;;;;;5058506;28;20228;-82
2022/07/13 11:38:16;;;;;;;3.35;1.15;;;42.20;40.30;;;;;;5061950;28;21073;-79
2022/07/13 11:41:06;;;;;;;4.53;1.35;;;41.30;42.30;;;;;;5059582;28;20235;-80
2022/07/13 11:43:55;;;;;;;7.25;1.42;;;39.30;42.90;;;;;;5060609;28;20216;-80
2022/07/13 11:46:46;;;;;;;5.47;1.40;;;37.50;44.70;;;;;;5057900;28;20681;-81
2022/07/13 11:49:45;;;;;;;1.65;1.20;;;36.50;46.80;;;;;;5058048;28;20228;-81
2022/07/13 11:52:34;;;;;;;4.93;1.67;;;36.70;47.60;;;;;;5058710;28;20220;-82
2022/07/13 11:55:24;;;;;;;11.05;1.30;;;37.10;48.00;;;;;;5080904;28;20207;-79
2022/07/13 11:58:22;;;;;;;7.43;1.65;;;37.90;47.70;;;;;;5064265;28;20211;-81
2022/07/13 12:01:12;;;;;;;5.00;1.20;;;36.90;48.10;;;;;;5079005;28;20230;-82
2022/07/13 12:04:05;;;;;;;4.03;1.30;;;37.30;47.40;;;;;;5078213;28;20228;-87
2022/07/13 12:07:12;;;;;;;5.85;1.30;;;38.70;46.90;;;;;;5066053;28;20215;-91
2022/07/13 12:10:04;;;;;;;3.15;1.23;;;41.10;44.60;;;;;;5100324;28;20286;-87
2022/07/13 12:12:54;;;;;;;1.65;1.25;;;40.50;43.50;;;;;;5100492;28;20214;-92
2022/07/13 12:15:45;;;;;;;3.42;1.25;;;40.50;44.20;;;;;;5082485;28;20223;-92
2022/07/13 12:18:58;;;;;;;5.63;1.65;;;40.20;44.20;;;;;;5089562;28;20245;-92
2022/07/13 12:21:58;;;;;;;4.70;1.50;;;38.90;45.20;;;;;;5090123;28;20208;-89
2022/07/13 12:24:47;;;;;;;2.38;1.20;;;37.30;47.30;;;;;;5073509;28;20208;-90
2022/07/13 12:27:39;;;;;;;5.90;1.30;;;36.10;49.10;;;;;;5079440;28;20243;-90
2022/07/13 12:30:33;;;;;;;4.55;1.40;;;35.20;49.90;;;;;;5066938;28;20243;-90
2022/07/13 12:33:23;;;;;;;4.20;1.40;;;34.50;50.90;;;;;;5077018;28;20228;-91
2022/07/13 12:36:13;;;;;;;2.95;1.15;;;33.90;51.70;;;;;;5092959;28;20236;-91
2022/07/13 12:39:04;;;;;;;3.92;1.50;;;33.40;53.10;;;;;;5055841;28;20690;-90
2022/07/13 12:41:56;;;;;;;2.78;1.40;;;33.10;53.70;;;;;;5068799;28;20220;-89
2022/07/13 12:44:49;;;;;;;3.80;1.50;;;32.60;54.10;;;;;;5068615;28;20223;-88
2022/07/13 12:47:38;;;;;;;3.40;1.40;;;32.40;55.00;;;;;;5060640;28;20219;-80
2022/07/13 12:50:28;;;;;;;3.05;1.80;;;32.50;55.70;;;;;;5059904;28;20618;-80
2022/07/13 12:53:18;;;;;;;5.65;1.50;;;32.50;55.90;;;;;;5058866;28;20224;-81
2022/07/13 12:56:08;;;;;;;5.57;1.83;;;32.80;56.50;;;;;;5059539;28;20315;-83
2022/07/13 12:58:58;;;;;;;2.50;1.50;;;32.80;55.90;;;;;;5051823;28;20223;-79
2022/07/13 13:01:49;;;;;;;3.50;1.92;;;32.70;56.20;;;;;;5060419;28;20306;-81
2022/07/13 13:04:38;;;;;;;4.25;3.10;;;32.50;56.80;;;;;;5060378;28;20247;-80
2022/07/13 13:07:27;;;;;;;3.55;1.73;;;32.10;57.40;;;;;;5062716;28;20220;-79
2022/07/13 13:10:16;;;;;;;5.43;1.67;;;31.60;56.40;;;;;;5041507;28;20239;-82
2022/07/13 13:13:15;;;;;;;2.78;1.90;;;31.70;57.00;;;;;;5046220;28;20230;-81
2022/07/13 13:16:05;;;;;;;7.25;1.80;;;31.30;58.10;;;;;;5032098;28;20250;-79
2022/07/13 13:18:55;;;;;;;3.35;1.55;;;31.20;58.30;;;;;;5064545;28;20243;-80
2022/07/13 13:21:46;;;;;;;2.60;1.65;;;31.20;58.70;;;;;;5064186;28;20348;-82
2022/07/13 13:24:35;;;;;;;2.60;1.58;;;31.20;58.50;;;;;;5043642;28;20779;-80
2022/07/13 13:27:23;;;;;;;3.35;1.40;;;31.00;59.00;;;;;;5076568;28;20412;-82
2022/07/13 13:30:48;;;;;;;2.55;1.95;;;31.00;59.40;;;;;;5051569;28;20223;-79
2022/07/13 13:33:37;;;;;;;4.10;1.40;;;31.00;59.00;;;;;;5058738;28;20228;-78
2022/07/13 13:36:47;;;;;;;2.60;1.10;;;30.70;57.90;;;;;;5061242;28;20211;-79
2022/07/13 13:39:36;;;;;;;2.70;1.13;;;30.70;57.80;;;;;;5039562;28;20631;-81
2022/07/13 13:42:24;;;;;;;2.97;1.30;;;30.70;58.40;;;;;;5060380;28;20216;-85
2022/07/13 13:45:34;;;;;;;1.70;1.10;;;30.40;57.20;;;;;;5059946;28;20227;-80
2022/07/13 13:48:23;;;;;;;1.88;1.00;;;30.40;58.20;;;;;;5070631;28;20219;-83
2022/07/13 13:51:12;;;;;;;2.40;1.13;;;30.10;58.40;;;;;;5061492;28;20230;-83
2022/07/13 13:54:22;;;;;;;3.92;1.30;;;29.90;58.90;;;;;;5075917;28;20232;-80
2022/07/13 13:57:11;;;;;;;3.65;1.40;;;29.30;58.80;;;;;;5063992;28;20763;-78
2022/07/13 13:59:59;;;;;;;5.45;1.58;;;29.20;61.00;;;;;;5068479;28;20223;-80
2022/07/13 14:03:09;;;;;;;6.88;1.50;;;29.00;61.00;;;;;;5060132;28;20228;-82
2022/07/13 14:05:57;;;;;;;4.10;1.45;;;28.60;62.00;;;;;;5061039;28;20318;-80
2022/07/13 14:08:47;;;;;;;4.00;2.22;;;28.50;63.10;;;;;;5062252;28;20251;-80
2022/07/13 14:11:39;;;;;;;4.18;1.80;;;28.40;63.70;;;;;;5063731;28;20220;-80
2022/07/13 14:14:27;;;;;;;1.70;1.50;;;28.20;64.10;;;;;;5063918;28;20219;-82
2022/07/13 14:17:16;;;;;;;2.67;1.60;;;28.10;64.60;;;;;;5061986;28;20223;-81
2022/07/13 14:20:06;;;;;;;2.28;1.70;;;28.00;66.00;;;;;;5048885;28;20247;-81
2022/07/13 14:23:06;;;;;;;2.65;1.90;;;27.90;66.70;;;;;;5064721;28;20232;-80
2022/07/13 14:25:55;;;;;;;4.30;1.70;;;27.80;67.10;;;;;;5059750;28;20233;-80
2022/07/13 14:28:46;;;;;;;2.65;2.00;;;27.60;67.60;;;;;;5051642;28;20311;-81
2022/07/13 14:31:34;;;;;;;3.25;1.95;;;27.60;68.40;;;;;;5057617;28;20292;-80
2022/07/13 14:34:23;;;;;;;3.70;1.90;;;27.50;69.70;;;;;;5063284;28;20228;-79
2022/07/13 14:37:11;;;;;;;5.25;1.88;;;27.40;69.50;;;;;;5064170;28;20252;-79
2022/07/13 14:40:00;;;;;;;4.60;2.00;;;27.40;70.20;;;;;;5060835;28;20259;-79
2022/07/13 14:42:49;;;;;;;4.70;1.92;;;27.40;70.60;;;;;;5062559;28;21601;-79
2022/07/13 14:45:39;;;;;;;2.75;1.70;;;27.30;71.00;;;;;;5064214;28;20224;-79
2022/07/13 14:48:28;;;;;;;2.35;2.00;;;27.40;71.40;;;;;;5063488;28;20220;-78
2022/07/13 14:51:40;;;;;;;2.17;1.80;;;27.50;71.90;;;;;;5045606;28;20239;-78
2022/07/13 14:54:29;;;;;;;4.57;2.20;;;27.40;71.20;;;;;;5028638;28;20220;-78
2022/07/13 14:57:18;;;;;;;3.40;2.13;;;27.30;71.30;;;;;;5054072;28;20235;-78
2022/07/13 15:00:08;;;;;;;4.13;2.35;;;27.20;71.90;;;;;;5060618;28;20232;-78
2022/07/13 15:02:58;;;;;;;3.45;1.77;;;27.10;71.40;;;;;;5060878;28;20248;-77